sensor_id;sensor_type;location;lat;lon;timestamp;P1;durP1;ratioP1;P2;durP2;ratioP2
1276;SDS011;631;51.024;13.826;2023-12-20T00:00:34;16.80;;;15.57;;
1276;SDS011;631;51.024;13.826;2023-12-20T00:03:02;16.30;;;15.32;;
1276;SDS011;631;51.024;13.826;2023-12-20T00:05:28;16.47;;;15.57;;
1276;SDS011;631;51.024;13.826;2023-12-20T00:07:53;16.10;;;15.10;;
1276;SDS011;631;51.024;13.826;2023-12-20T00:10:19;16.60;;;15.60;;
1276;SDS011;631;51.024;13.826;2023-12-20T00:12:45;16.40;;;15.50;;
1276;SDS011;631;51.024;13.826;2023-12-20T00:15:10;17.40;;;16.30;;
1276;SDS011;631;51.024;13.826;2023-12-20T00:17:36;16.00;;;15.20;;
1276;SDS011;631;51.024;13.826;2023-12-20T00:20:02;17.30;;;16.20;;
1276;SDS011;631;51.024;13.826;2023-12-20T00:22:27;16.90;;;15.80;;
1276;SDS011;631;51.024;13.826;2023-12-20T00:24:53;15.77;;;14.97;;
1276;SDS011;631;51.024;13.826;2023-12-20T00:27:18;16.10;;;15.20;;
1276;SDS011;631;51.024;13.826;2023-12-20T00:29:44;16.67;;;15.47;;
1276;SDS011;631;51.024;13.826;2023-12-20T00:32:12;16.45;;;15.55;;
1276;SDS011;631;51.024;13.826;2023-12-20T00:34:38;16.33;;;15.33;;
1276;SDS011;631;51.024;13.826;2023-12-20T00:37:04;16.30;;;15.40;;
1276;SDS011;631;51.024;13.826;2023-12-20T00:39:30;17.00;;;15.90;;
1276;SDS011;631;51.024;13.826;2023-12-20T00:41:56;15.80;;;14.90;;
1276;SDS011;631;51.024;13.826;2023-12-20T00:44:21;15.93;;;15.03;;
1276;SDS011;631;51.024;13.826;2023-12-20T00:46:47;15.80;;;15.00;;
1276;SDS011;631;51.024;13.826;2023-12-20T00:49:12;16.20;;;15.30;;
1276;SDS011;631;51.024;13.826;2023-12-20T00:51:38;16.03;;;15.13;;
1276;SDS011;631;51.024;13.826;2023-12-20T00:54:04;15.70;;;14.90;;
1276;SDS011;631;51.024;13.826;2023-12-20T00:56:29;15.47;;;14.67;;
1276;SDS011;631;51.024;13.826;2023-12-20T00:58:55;15.50;;;14.70;;
1276;SDS011;631;51.024;13.826;2023-12-20T01:01:21;15.53;;;14.63;;
1276;SDS011;631;51.024;13.826;2023-12-20T01:03:47;15.70;;;14.85;;
1276;SDS011;631;51.024;13.826;2023-12-20T01:06:13;16.40;;;15.50;;
1276;SDS011;631;51.024;13.826;2023-12-20T01:08:39;15.55;;;14.75;;
1276;SDS011;631;51.024;13.826;2023-12-20T01:11:04;15.80;;;14.90;;
1276;SDS011;631;51.024;13.826;2023-12-20T01:13:30;15.05;;;14.35;;
1276;SDS011;631;51.024;13.826;2023-12-20T01:15:56;15.67;;;14.87;;
1276;SDS011;631;51.024;13.826;2023-12-20T01:18:22;15.20;;;14.40;;
1276;SDS011;631;51.024;13.826;2023-12-20T01:20:47;14.50;;;13.80;;
1276;SDS011;631;51.024;13.826;2023-12-20T01:23:13;15.57;;;14.70;;
1276;SDS011;631;51.024;13.826;2023-12-20T01:25:39;15.30;;;14.50;;
1276;SDS011;631;51.024;13.826;2023-12-20T01:28:04;15.33;;;14.57;;
1276;SDS011;631;51.024;13.826;2023-12-20T01:30:30;15.30;;;14.50;;
1276;SDS011;631;51.024;13.826;2023-12-20T01:32:56;15.00;;;14.20;;
1276;SDS011;631;51.024;13.826;2023-12-20T01:35:21;15.10;;;14.30;;
1276;SDS011;631;51.024;13.826;2023-12-20T01:37:47;15.17;;;14.37;;
1276;SDS011;631;51.024;13.826;2023-12-20T01:40:12;14.70;;;14.00;;
1276;SDS011;631;51.024;13.826;2023-12-20T01:42:38;14.97;;;14.20;;
1276;SDS011;631;51.024;13.826;2023-12-20T01:45:04;14.93;;;14.23;;
1276;SDS011;631;51.024;13.826;2023-12-20T01:47:30;15.30;;;14.50;;
1276;SDS011;631;51.024;13.826;2023-12-20T01:49:55;15.17;;;14.37;;
1276;SDS011;631;51.024;13.826;2023-12-20T01:52:22;15.45;;;14.65;;
1276;SDS011;631;51.024;13.826;2023-12-20T01:54:48;14.80;;;14.10;;
1276;SDS011;631;51.024;13.826;2023-12-20T01:57:14;15.20;;;14.40;;
1276;SDS011;631;51.024;13.826;2023-12-20T01:59:40;15.82;;;14.70;;
1276;SDS011;631;51.024;13.826;2023-12-20T02:02:06;15.80;;;14.70;;
1276;SDS011;631;51.024;13.826;2023-12-20T02:04:33;14.90;;;14.20;;
1276;SDS011;631;51.024;13.826;2023-12-20T02:06:59;15.37;;;14.57;;
1276;SDS011;631;51.024;13.826;2023-12-20T02:09:24;15.40;;;14.60;;
1276;SDS011;631;51.024;13.826;2023-12-20T02:11:51;15.20;;;14.50;;
1276;SDS011;631;51.024;13.826;2023-12-20T02:14:16;15.20;;;14.50;;
1276;SDS011;631;51.024;13.826;2023-12-20T02:16:42;15.60;;;14.80;;
1276;SDS011;631;51.024;13.826;2023-12-20T02:19:09;15.17;;;14.40;;
1276;SDS011;631;51.024;13.826;2023-12-20T02:21:40;14.75;;;14.05;;
1276;SDS011;631;51.024;13.826;2023-12-20T02:24:05;14.70;;;14.00;;
1276;SDS011;631;51.024;13.826;2023-12-20T02:26:34;14.90;;;14.20;;
1276;SDS011;631;51.024;13.826;2023-12-20T02:28:59;15.25;;;14.45;;
1276;SDS011;631;51.024;13.826;2023-12-20T02:31:26;14.18;;;13.52;;
1276;SDS011;631;51.024;13.826;2023-12-20T02:33:52;15.20;;;14.40;;
1276;SDS011;631;51.024;13.826;2023-12-20T02:36:17;14.70;;;14.00;;
1276;SDS011;631;51.024;13.826;2023-12-20T02:38:43;14.87;;;14.10;;
1276;SDS011;631;51.024;13.826;2023-12-20T02:41:09;14.70;;;14.00;;
1276;SDS011;631;51.024;13.826;2023-12-20T02:43:34;15.00;;;14.20;;
1276;SDS011;631;51.024;13.826;2023-12-20T02:46:00;14.63;;;13.93;;
1276;SDS011;631;51.024;13.826;2023-12-20T02:48:25;14.60;;;13.90;;
1276;SDS011;631;51.024;13.826;2023-12-20T02:50:51;14.30;;;13.60;;
1276;SDS011;631;51.024;13.826;2023-12-20T02:53:17;14.23;;;13.53;;
1276;SDS011;631;51.024;13.826;2023-12-20T02:55:42;14.50;;;13.80;;
1276;SDS011;631;51.024;13.826;2023-12-20T02:58:08;14.50;;;13.80;;
1276;SDS011;631;51.024;13.826;2023-12-20T03:00:33;13.90;;;13.30;;
1276;SDS011;631;51.024;13.826;2023-12-20T03:02:59;13.70;;;13.10;;
1276;SDS011;631;51.024;13.826;2023-12-20T03:05:25;14.07;;;13.47;;
1276;SDS011;631;51.024;13.826;2023-12-20T03:07:50;14.70;;;13.90;;
1276;SDS011;631;51.024;13.826;2023-12-20T03:10:18;14.95;;;14.25;;
1276;SDS011;631;51.024;13.826;2023-12-20T03:12:43;14.15;;;13.55;;
1276;SDS011;631;51.024;13.826;2023-12-20T03:15:10;14.40;;;13.70;;
1276;SDS011;631;51.024;13.826;2023-12-20T03:17:35;14.70;;;14.00;;
1276;SDS011;631;51.024;13.826;2023-12-20T03:20:01;14.40;;;13.70;;
1276;SDS011;631;51.024;13.826;2023-12-20T03:22:27;14.17;;;13.50;;
1276;SDS011;631;51.024;13.826;2023-12-20T03:24:53;14.10;;;13.50;;
1276;SDS011;631;51.024;13.826;2023-12-20T03:27:18;14.33;;;13.63;;
1276;SDS011;631;51.024;13.826;2023-12-20T03:29:44;14.60;;;13.90;;
1276;SDS011;631;51.024;13.826;2023-12-20T03:32:09;14.03;;;13.33;;
1276;SDS011;631;51.024;13.826;2023-12-20T03:34:35;14.37;;;13.67;;
1276;SDS011;631;51.024;13.826;2023-12-20T03:37:00;14.50;;;13.80;;
1276;SDS011;631;51.024;13.826;2023-12-20T03:39:26;14.83;;;14.13;;
1276;SDS011;631;51.024;13.826;2023-12-20T03:41:52;13.90;;;13.30;;
1276;SDS011;631;51.024;13.826;2023-12-20T03:44:17;13.90;;;13.30;;
1276;SDS011;631;51.024;13.826;2023-12-20T03:46:43;14.10;;;13.50;;
1276;SDS011;631;51.024;13.826;2023-12-20T03:49:11;13.60;;;13.00;;
1276;SDS011;631;51.024;13.826;2023-12-20T03:51:37;14.10;;;13.40;;
1276;SDS011;631;51.024;13.826;2023-12-20T03:54:02;13.57;;;12.97;;
1276;SDS011;631;51.024;13.826;2023-12-20T03:56:28;14.00;;;13.30;;
1276;SDS011;631;51.024;13.826;2023-12-20T03:58:54;14.17;;;13.57;;
1276;SDS011;631;51.024;13.826;2023-12-20T04:01:19;13.80;;;13.20;;
1276;SDS011;631;51.024;13.826;2023-12-20T04:03:45;13.90;;;13.20;;
1276;SDS011;631;51.024;13.826;2023-12-20T04:06:16;13.80;;;13.20;;
1276;SDS011;631;51.024;13.826;2023-12-20T04:08:44;13.68;;;13.07;;
1276;SDS011;631;51.024;13.826;2023-12-20T04:11:10;13.70;;;13.10;;
1276;SDS011;631;51.024;13.826;2023-12-20T04:13:35;13.60;;;13.00;;
1276;SDS011;631;51.024;13.826;2023-12-20T04:16:01;13.73;;;13.13;;
1276;SDS011;631;51.024;13.826;2023-12-20T04:18:27;13.13;;;12.63;;
1276;SDS011;631;51.024;13.826;2023-12-20T04:20:53;13.07;;;12.50;;
1276;SDS011;631;51.024;13.826;2023-12-20T04:23:19;13.40;;;12.80;;
1276;SDS011;631;51.024;13.826;2023-12-20T04:25:44;13.33;;;12.73;;
1276;SDS011;631;51.024;13.826;2023-12-20T04:28:10;13.67;;;13.07;;
1276;SDS011;631;51.024;13.826;2023-12-20T04:30:35;13.57;;;12.97;;
1276;SDS011;631;51.024;13.826;2023-12-20T04:33:01;13.47;;;12.87;;
1276;SDS011;631;51.024;13.826;2023-12-20T04:35:27;13.63;;;13.02;;
1276;SDS011;631;51.024;13.826;2023-12-20T04:37:53;13.63;;;12.93;;
1276;SDS011;631;51.024;13.826;2023-12-20T04:40:18;13.27;;;12.67;;
1276;SDS011;631;51.024;13.826;2023-12-20T04:42:44;13.93;;;13.33;;
1276;SDS011;631;51.024;13.826;2023-12-20T04:45:09;13.30;;;12.70;;
1276;SDS011;631;51.024;13.826;2023-12-20T04:47:38;13.57;;;12.98;;
1276;SDS011;631;51.024;13.826;2023-12-20T04:50:03;13.30;;;12.70;;
1276;SDS011;631;51.024;13.826;2023-12-20T04:52:30;13.30;;;12.70;;
1276;SDS011;631;51.024;13.826;2023-12-20T04:54:55;13.30;;;12.77;;
1276;SDS011;631;51.024;13.826;2023-12-20T04:57:21;13.10;;;12.50;;
1276;SDS011;631;51.024;13.826;2023-12-20T04:59:47;12.53;;;11.93;;
1276;SDS011;631;51.024;13.826;2023-12-20T05:02:12;13.47;;;12.80;;
1276;SDS011;631;51.024;13.826;2023-12-20T05:04:38;13.03;;;12.43;;
1276;SDS011;631;51.024;13.826;2023-12-20T05:07:03;13.30;;;12.70;;
1276;SDS011;631;51.024;13.826;2023-12-20T05:09:30;12.65;;;12.10;;
1276;SDS011;631;51.024;13.826;2023-12-20T05:11:56;12.88;;;12.27;;
1276;SDS011;631;51.024;13.826;2023-12-20T05:14:21;13.40;;;12.80;;
1276;SDS011;631;51.024;13.826;2023-12-20T05:16:47;13.70;;;13.10;;
1276;SDS011;631;51.024;13.826;2023-12-20T05:19:12;14.00;;;13.30;;
1276;SDS011;631;51.024;13.826;2023-12-20T05:21:39;13.20;;;12.60;;
1276;SDS011;631;51.024;13.826;2023-12-20T05:24:04;13.50;;;12.90;;
1276;SDS011;631;51.024;13.826;2023-12-20T05:26:30;13.50;;;12.87;;
1276;SDS011;631;51.024;13.826;2023-12-20T05:28:56;13.57;;;12.97;;
1276;SDS011;631;51.024;13.826;2023-12-20T05:31:21;12.90;;;12.33;;
1276;SDS011;631;51.024;13.826;2023-12-20T05:33:47;13.37;;;12.77;;
1276;SDS011;631;51.024;13.826;2023-12-20T05:36:12;13.10;;;12.50;;
1276;SDS011;631;51.024;13.826;2023-12-20T05:38:40;12.60;;;12.00;;
1276;SDS011;631;51.024;13.826;2023-12-20T05:41:05;11.93;;;11.43;;
1276;SDS011;631;51.024;13.826;2023-12-20T05:43:31;13.10;;;12.50;;
1276;SDS011;631;51.024;13.826;2023-12-20T05:45:57;13.80;;;13.10;;
1276;SDS011;631;51.024;13.826;2023-12-20T05:48:23;13.23;;;12.63;;
1276;SDS011;631;51.024;13.826;2023-12-20T05:50:48;12.10;;;11.60;;
1276;SDS011;631;51.024;13.826;2023-12-20T05:53:14;11.87;;;11.37;;
1276;SDS011;631;51.024;13.826;2023-12-20T05:55:40;12.50;;;11.90;;
1276;SDS011;631;51.024;13.826;2023-12-20T05:58:05;12.03;;;11.53;;
1276;SDS011;631;51.024;13.826;2023-12-20T06:00:31;11.97;;;11.47;;
1276;SDS011;631;51.024;13.826;2023-12-20T06:02:56;12.20;;;11.70;;
1276;SDS011;631;51.024;13.826;2023-12-20T06:05:22;12.37;;;11.77;;
1276;SDS011;631;51.024;13.826;2023-12-20T06:07:48;12.43;;;11.90;;
1276;SDS011;631;51.024;13.826;2023-12-20T06:10:15;13.05;;;12.45;;
1276;SDS011;631;51.024;13.826;2023-12-20T06:12:41;13.80;;;13.20;;
1276;SDS011;631;51.024;13.826;2023-12-20T06:15:07;13.07;;;12.47;;
1276;SDS011;631;51.024;13.826;2023-12-20T06:17:33;12.40;;;11.90;;
1276;SDS011;631;51.024;13.826;2023-12-20T06:19:59;12.90;;;12.30;;
1276;SDS011;631;51.024;13.826;2023-12-20T06:22:25;12.60;;;12.00;;
1276;SDS011;631;51.024;13.826;2023-12-20T06:24:51;11.70;;;11.20;;
1276;SDS011;631;51.024;13.826;2023-12-20T06:27:17;12.73;;;12.13;;
1276;SDS011;631;51.024;13.826;2023-12-20T06:29:42;12.30;;;11.70;;
1276;SDS011;631;51.024;13.826;2023-12-20T06:32:09;12.57;;;11.98;;
1276;SDS011;631;51.024;13.826;2023-12-20T06:34:35;12.17;;;11.60;;
1276;SDS011;631;51.024;13.826;2023-12-20T06:37:01;12.30;;;11.80;;
1276;SDS011;631;51.024;13.826;2023-12-20T06:39:26;13.00;;;12.40;;
1276;SDS011;631;51.024;13.826;2023-12-20T06:41:53;13.40;;;12.70;;
1276;SDS011;631;51.024;13.826;2023-12-20T06:44:18;12.90;;;12.30;;
1276;SDS011;631;51.024;13.826;2023-12-20T06:46:44;12.93;;;12.33;;
1276;SDS011;631;51.024;13.826;2023-12-20T06:49:09;12.60;;;12.00;;
1276;SDS011;631;51.024;13.826;2023-12-20T06:51:35;12.50;;;11.80;;
1276;SDS011;631;51.024;13.826;2023-12-20T06:54:01;12.70;;;12.10;;
1276;SDS011;631;51.024;13.826;2023-12-20T06:56:27;13.77;;;12.98;;
1276;SDS011;631;51.024;13.826;2023-12-20T06:58:53;13.03;;;12.43;;
1276;SDS011;631;51.024;13.826;2023-12-20T07:01:18;13.17;;;12.47;;
1276;SDS011;631;51.024;13.826;2023-12-20T07:03:44;13.67;;;12.93;;
1276;SDS011;631;51.024;13.826;2023-12-20T07:06:10;12.70;;;12.10;;
1276;SDS011;631;51.024;13.826;2023-12-20T07:08:36;14.30;;;13.57;;
1276;SDS011;631;51.024;13.826;2023-12-20T07:11:01;15.13;;;14.33;;
1276;SDS011;631;51.024;13.826;2023-12-20T07:13:27;14.10;;;13.40;;
1276;SDS011;631;51.024;13.826;2023-12-20T07:15:53;14.60;;;13.80;;
1276;SDS011;631;51.024;13.826;2023-12-20T07:18:18;13.87;;;13.10;;
1276;SDS011;631;51.024;13.826;2023-12-20T07:20:44;13.57;;;12.87;;
1276;SDS011;631;51.024;13.826;2023-12-20T07:23:09;13.90;;;13.20;;
1276;SDS011;631;51.024;13.826;2023-12-20T07:25:35;15.00;;;14.10;;
1276;SDS011;631;51.024;13.826;2023-12-20T07:28:00;15.03;;;14.23;;
1276;SDS011;631;51.024;13.826;2023-12-20T07:30:26;14.97;;;14.17;;
1276;SDS011;631;51.024;13.826;2023-12-20T07:32:52;14.70;;;13.90;;
1276;SDS011;631;51.024;13.826;2023-12-20T07:35:18;13.70;;;13.00;;
1276;SDS011;631;51.024;13.826;2023-12-20T07:37:43;14.57;;;13.67;;
1276;SDS011;631;51.024;13.826;2023-12-20T07:40:09;14.30;;;13.60;;
1276;SDS011;631;51.024;13.826;2023-12-20T07:42:35;13.60;;;12.80;;
1276;SDS011;631;51.024;13.826;2023-12-20T07:45:01;13.93;;;13.23;;
1276;SDS011;631;51.024;13.826;2023-12-20T07:47:26;13.73;;;13.03;;
1276;SDS011;631;51.024;13.826;2023-12-20T07:49:52;14.43;;;13.63;;
1276;SDS011;631;51.024;13.826;2023-12-20T07:52:18;15.20;;;14.30;;
1276;SDS011;631;51.024;13.826;2023-12-20T07:54:44;15.13;;;14.33;;
1276;SDS011;631;51.024;13.826;2023-12-20T07:57:10;14.82;;;13.98;;
1276;SDS011;631;51.024;13.826;2023-12-20T07:59:36;14.40;;;13.60;;
1276;SDS011;631;51.024;13.826;2023-12-20T08:02:01;13.90;;;13.10;;
1276;SDS011;631;51.024;13.826;2023-12-20T08:04:27;14.10;;;13.33;;
1276;SDS011;631;51.024;13.826;2023-12-20T08:06:53;14.80;;;14.00;;
1276;SDS011;631;51.024;13.826;2023-12-20T08:09:18;13.97;;;13.10;;
1276;SDS011;631;51.024;13.826;2023-12-20T08:11:47;15.00;;;14.17;;
1276;SDS011;631;51.024;13.826;2023-12-20T08:14:13;14.77;;;13.90;;
1276;SDS011;631;51.024;13.826;2023-12-20T08:16:39;14.23;;;13.32;;
1276;SDS011;631;51.024;13.826;2023-12-20T08:19:05;14.67;;;13.80;;
1276;SDS011;631;51.024;13.826;2023-12-20T08:21:30;15.53;;;14.57;;
1276;SDS011;631;51.024;13.826;2023-12-20T08:23:56;14.80;;;13.80;;
1276;SDS011;631;51.024;13.826;2023-12-20T08:26:22;14.60;;;13.60;;
1276;SDS011;631;51.024;13.826;2023-12-20T08:28:49;13.75;;;12.80;;
1276;SDS011;631;51.024;13.826;2023-12-20T08:31:18;13.47;;;12.70;;
1276;SDS011;631;51.024;13.826;2023-12-20T08:33:44;12.63;;;11.93;;
1276;SDS011;631;51.024;13.826;2023-12-20T08:36:11;12.38;;;11.77;;
1276;SDS011;631;51.024;13.826;2023-12-20T08:38:37;11.77;;;11.07;;
1276;SDS011;631;51.024;13.826;2023-12-20T08:41:03;12.00;;;11.40;;
1276;SDS011;631;51.024;13.826;2023-12-20T08:43:30;12.20;;;11.50;;
1276;SDS011;631;51.024;13.826;2023-12-20T08:45:57;12.55;;;11.85;;
1276;SDS011;631;51.024;13.826;2023-12-20T08:48:22;12.30;;;11.70;;
1276;SDS011;631;51.024;13.826;2023-12-20T08:50:48;12.03;;;11.43;;
1276;SDS011;631;51.024;13.826;2023-12-20T08:53:15;12.40;;;11.70;;
1276;SDS011;631;51.024;13.826;2023-12-20T08:55:41;11.77;;;11.13;;
1276;SDS011;631;51.024;13.826;2023-12-20T08:58:07;12.00;;;11.10;;
1276;SDS011;631;51.024;13.826;2023-12-20T09:00:33;11.43;;;10.83;;
1276;SDS011;631;51.024;13.826;2023-12-20T09:03:00;11.30;;;10.80;;
1276;SDS011;631;51.024;13.826;2023-12-20T09:05:26;11.07;;;10.40;;
1276;SDS011;631;51.024;13.826;2023-12-20T09:07:52;12.23;;;11.57;;
1276;SDS011;631;51.024;13.826;2023-12-20T09:10:18;12.10;;;11.50;;
1276;SDS011;631;51.024;13.826;2023-12-20T09:12:47;11.73;;;11.13;;
1276;SDS011;631;51.024;13.826;2023-12-20T09:15:15;11.77;;;11.17;;
1276;SDS011;631;51.024;13.826;2023-12-20T09:17:40;11.73;;;11.23;;
1276;SDS011;631;51.024;13.826;2023-12-20T09:20:06;11.03;;;10.37;;
1276;SDS011;631;51.024;13.826;2023-12-20T09:22:33;11.53;;;11.03;;
1276;SDS011;631;51.024;13.826;2023-12-20T09:24:59;11.27;;;10.73;;
1276;SDS011;631;51.024;13.826;2023-12-20T09:27:26;12.00;;;11.40;;
1276;SDS011;631;51.024;13.826;2023-12-20T09:29:52;11.10;;;10.50;;
1276;SDS011;631;51.024;13.826;2023-12-20T09:32:18;10.93;;;10.40;;
1276;SDS011;631;51.024;13.826;2023-12-20T09:34:45;11.17;;;10.57;;
1276;SDS011;631;51.024;13.826;2023-12-20T09:37:12;11.60;;;10.90;;
1276;SDS011;631;51.024;13.826;2023-12-20T09:39:38;10.93;;;10.33;;
1276;SDS011;631;51.024;13.826;2023-12-20T09:42:04;10.80;;;10.30;;
1276;SDS011;631;51.024;13.826;2023-12-20T09:44:31;10.67;;;10.17;;
1276;SDS011;631;51.024;13.826;2023-12-20T09:47:05;10.53;;;10.03;;
1276;SDS011;631;51.024;13.826;2023-12-20T09:49:32;10.70;;;10.20;;
1276;SDS011;631;51.024;13.826;2023-12-20T09:51:58;10.63;;;10.03;;
1276;SDS011;631;51.024;13.826;2023-12-20T09:54:25;10.93;;;10.33;;
1276;SDS011;631;51.024;13.826;2023-12-20T09:56:53;11.40;;;10.70;;
1276;SDS011;631;51.024;13.826;2023-12-20T09:59:19;11.03;;;10.53;;
1276;SDS011;631;51.024;13.826;2023-12-20T10:01:45;11.47;;;10.80;;
1276;SDS011;631;51.024;13.826;2023-12-20T10:04:11;11.90;;;11.10;;
1276;SDS011;631;51.024;13.826;2023-12-20T10:06:41;11.47;;;10.93;;
1276;SDS011;631;51.024;13.826;2023-12-20T10:09:09;11.30;;;10.70;;
1276;SDS011;631;51.024;13.826;2023-12-20T10:11:36;11.40;;;10.90;;
1276;SDS011;631;51.024;13.826;2023-12-20T10:14:05;11.20;;;10.60;;
1276;SDS011;631;51.024;13.826;2023-12-20T10:16:31;10.67;;;10.07;;
1276;SDS011;631;51.024;13.826;2023-12-20T10:18:58;11.73;;;11.03;;
1276;SDS011;631;51.024;13.826;2023-12-20T10:21:24;11.63;;;10.93;;
1276;SDS011;631;51.024;13.826;2023-12-20T10:23:56;11.20;;;10.70;;
1276;SDS011;631;51.024;13.826;2023-12-20T10:26:26;11.20;;;10.70;;
1276;SDS011;631;51.024;13.826;2023-12-20T10:28:59;11.37;;;10.73;;
1276;SDS011;631;51.024;13.826;2023-12-20T10:31:33;11.63;;;11.03;;
1276;SDS011;631;51.024;13.826;2023-12-20T10:34:01;11.10;;;10.60;;
1276;SDS011;631;51.024;13.826;2023-12-20T10:36:28;10.80;;;10.30;;
1276;SDS011;631;51.024;13.826;2023-12-20T10:38:55;11.50;;;10.90;;
1276;SDS011;631;51.024;13.826;2023-12-20T10:41:27;12.03;;;11.53;;
1276;SDS011;631;51.024;13.826;2023-12-20T10:44:03;12.00;;;11.30;;
1276;SDS011;631;51.024;13.826;2023-12-20T10:46:33;11.80;;;11.30;;
1276;SDS011;631;51.024;13.826;2023-12-20T10:48:59;11.77;;;11.10;;
1276;SDS011;631;51.024;13.826;2023-12-20T10:51:27;12.30;;;11.70;;
1276;SDS011;631;51.024;13.826;2023-12-20T10:53:55;11.60;;;11.00;;
1276;SDS011;631;51.024;13.826;2023-12-20T10:56:21;11.70;;;11.10;;
1276;SDS011;631;51.024;13.826;2023-12-20T10:58:51;12.27;;;11.50;;
1276;SDS011;631;51.024;13.826;2023-12-20T11:01:17;11.40;;;10.80;;
1276;SDS011;631;51.024;13.826;2023-12-20T11:09:12;11.10;;;10.60;;
1276;SDS011;631;51.024;13.826;2023-12-20T11:11:51;11.47;;;10.90;;
1276;SDS011;631;51.024;13.826;2023-12-20T11:17:11;10.90;;;10.40;;
1276;SDS011;631;51.024;13.826;2023-12-20T11:22:27;11.37;;;10.87;;
1276;SDS011;631;51.024;13.826;2023-12-20T11:24:56;15.83;;;11.07;;
1276;SDS011;631;51.024;13.826;2023-12-20T11:27:27;11.27;;;10.57;;
1276;SDS011;631;51.024;13.826;2023-12-20T11:29:56;11.27;;;10.53;;
1276;SDS011;631;51.024;13.826;2023-12-20T11:34:53;11.70;;;11.10;;
1276;SDS011;631;51.024;13.826;2023-12-20T11:37:28;11.80;;;11.30;;
1276;SDS011;631;51.024;13.826;2023-12-20T11:40:21;13.03;;;12.23;;
1276;SDS011;631;51.024;13.826;2023-12-20T11:42:48;11.63;;;11.00;;
1276;SDS011;631;51.024;13.826;2023-12-20T11:45:18;11.87;;;11.20;;
1276;SDS011;631;51.024;13.826;2023-12-20T11:47:47;12.03;;;11.43;;
1276;SDS011;631;51.024;13.826;2023-12-20T11:50:19;12.93;;;12.13;;
1276;SDS011;631;51.024;13.826;2023-12-20T11:52:46;11.80;;;11.20;;
1276;SDS011;631;51.024;13.826;2023-12-20T11:55:13;11.03;;;10.63;;
1276;SDS011;631;51.024;13.826;2023-12-20T11:57:38;11.03;;;10.43;;
1276;SDS011;631;51.024;13.826;2023-12-20T12:00:04;12.10;;;11.50;;
1276;SDS011;631;51.024;13.826;2023-12-20T12:02:31;12.10;;;11.50;;
1276;SDS011;631;51.024;13.826;2023-12-20T12:04:57;12.33;;;11.63;;
1276;SDS011;631;51.024;13.826;2023-12-20T12:07:24;12.80;;;12.10;;
1276;SDS011;631;51.024;13.826;2023-12-20T12:09:50;11.80;;;11.20;;
1276;SDS011;631;51.024;13.826;2023-12-20T12:12:16;11.17;;;10.57;;
1276;SDS011;631;51.024;13.826;2023-12-20T12:14:43;11.10;;;10.50;;
1276;SDS011;631;51.024;13.826;2023-12-20T12:17:13;12.20;;;11.60;;
1276;SDS011;631;51.024;13.826;2023-12-20T12:19:39;12.20;;;11.50;;
1276;SDS011;631;51.024;13.826;2023-12-20T12:22:09;11.90;;;11.20;;
1276;SDS011;631;51.024;13.826;2023-12-20T12:24:40;11.47;;;10.77;;
1276;SDS011;631;51.024;13.826;2023-12-20T12:27:06;11.90;;;11.30;;
1276;SDS011;631;51.024;13.826;2023-12-20T12:29:33;12.23;;;11.53;;
1276;SDS011;631;51.024;13.826;2023-12-20T12:32:05;12.13;;;11.53;;
1276;SDS011;631;51.024;13.826;2023-12-20T12:34:32;12.03;;;11.23;;
1276;SDS011;631;51.024;13.826;2023-12-20T12:36:59;11.93;;;11.17;;
1276;SDS011;631;51.024;13.826;2023-12-20T12:39:25;11.90;;;11.30;;
1276;SDS011;631;51.024;13.826;2023-12-20T12:41:51;11.57;;;10.97;;
1276;SDS011;631;51.024;13.826;2023-12-20T12:44:17;11.20;;;10.60;;
1276;SDS011;631;51.024;13.826;2023-12-20T12:46:43;11.40;;;10.90;;
1276;SDS011;631;51.024;13.826;2023-12-20T12:49:12;11.70;;;11.20;;
1276;SDS011;631;51.024;13.826;2023-12-20T12:51:38;11.17;;;10.60;;
1276;SDS011;631;51.024;13.826;2023-12-20T12:54:03;11.20;;;10.60;;
1276;SDS011;631;51.024;13.826;2023-12-20T12:56:29;11.43;;;10.70;;
1276;SDS011;631;51.024;13.826;2023-12-20T12:58:55;12.03;;;11.37;;
1276;SDS011;631;51.024;13.826;2023-12-20T13:01:21;11.60;;;11.07;;
1276;SDS011;631;51.024;13.826;2023-12-20T13:03:47;11.23;;;10.57;;
1276;SDS011;631;51.024;13.826;2023-12-20T13:06:12;11.97;;;11.40;;
1276;SDS011;631;51.024;13.826;2023-12-20T13:08:38;11.80;;;11.20;;
1276;SDS011;631;51.024;13.826;2023-12-20T13:11:04;12.20;;;11.60;;
1276;SDS011;631;51.024;13.826;2023-12-20T13:13:30;12.23;;;11.57;;
1276;SDS011;631;51.024;13.826;2023-12-20T13:15:56;11.00;;;10.50;;
1276;SDS011;631;51.024;13.826;2023-12-20T13:18:22;12.00;;;11.40;;
1276;SDS011;631;51.024;13.826;2023-12-20T13:20:48;11.60;;;10.93;;
1276;SDS011;631;51.024;13.826;2023-12-20T13:23:14;11.57;;;10.97;;
1276;SDS011;631;51.024;13.826;2023-12-20T13:25:40;12.77;;;11.80;;
1276;SDS011;631;51.024;13.826;2023-12-20T13:28:06;11.10;;;10.50;;
1276;SDS011;631;51.024;13.826;2023-12-20T13:30:33;11.30;;;10.80;;
1276;SDS011;631;51.024;13.826;2023-12-20T13:32:59;12.30;;;11.70;;
1276;SDS011;631;51.024;13.826;2023-12-20T13:35:25;12.03;;;11.43;;
1276;SDS011;631;51.024;13.826;2023-12-20T13:37:50;12.00;;;11.20;;
1276;SDS011;631;51.024;13.826;2023-12-20T13:40:16;11.13;;;10.37;;
1276;SDS011;631;51.024;13.826;2023-12-20T13:42:41;11.63;;;11.03;;
1276;SDS011;631;51.024;13.826;2023-12-20T13:45:07;11.60;;;10.90;;
1276;SDS011;631;51.024;13.826;2023-12-20T13:47:33;11.83;;;11.10;;
1276;SDS011;631;51.024;13.826;2023-12-20T13:49:59;10.97;;;10.47;;
1276;SDS011;631;51.024;13.826;2023-12-20T13:52:24;10.77;;;10.17;;
1276;SDS011;631;51.024;13.826;2023-12-20T13:54:50;10.97;;;10.47;;
1276;SDS011;631;51.024;13.826;2023-12-20T13:57:15;11.20;;;10.20;;
1276;SDS011;631;51.024;13.826;2023-12-20T13:59:41;11.70;;;11.17;;
1276;SDS011;631;51.024;13.826;2023-12-20T14:02:07;11.53;;;10.80;;
1276;SDS011;631;51.024;13.826;2023-12-20T14:04:33;11.43;;;10.80;;
1276;SDS011;631;51.024;13.826;2023-12-20T14:06:58;11.93;;;11.23;;
1276;SDS011;631;51.024;13.826;2023-12-20T14:09:24;11.30;;;10.80;;
1276;SDS011;631;51.024;13.826;2023-12-20T14:11:50;10.47;;;9.97;;
1276;SDS011;631;51.024;13.826;2023-12-20T14:14:15;12.03;;;11.40;;
1276;SDS011;631;51.024;13.826;2023-12-20T14:16:41;11.23;;;10.63;;
1276;SDS011;631;51.024;13.826;2023-12-20T14:19:09;11.77;;;11.17;;
1276;SDS011;631;51.024;13.826;2023-12-20T14:21:36;11.10;;;10.60;;
1276;SDS011;631;51.024;13.826;2023-12-20T14:24:01;13.73;;;12.87;;
1276;SDS011;631;51.024;13.826;2023-12-20T14:26:28;11.37;;;10.70;;
1276;SDS011;631;51.024;13.826;2023-12-20T14:28:54;11.23;;;10.63;;
1276;SDS011;631;51.024;13.826;2023-12-20T14:31:20;11.57;;;10.97;;
1276;SDS011;631;51.024;13.826;2023-12-20T14:33:48;11.30;;;10.80;;
1276;SDS011;631;51.024;13.826;2023-12-20T14:36:15;12.33;;;11.73;;
1276;SDS011;631;51.024;13.826;2023-12-20T14:38:42;9.97;;;9.50;;
1276;SDS011;631;51.024;13.826;2023-12-20T14:41:08;11.23;;;10.73;;
1276;SDS011;631;51.024;13.826;2023-12-20T14:43:34;11.30;;;10.80;;
1276;SDS011;631;51.024;13.826;2023-12-20T14:46:00;10.97;;;10.47;;
1276;SDS011;631;51.024;13.826;2023-12-20T14:48:25;11.47;;;10.87;;
1276;SDS011;631;51.024;13.826;2023-12-20T14:50:52;12.67;;;11.90;;
1276;SDS011;631;51.024;13.826;2023-12-20T14:53:18;11.70;;;11.10;;
1276;SDS011;631;51.024;13.826;2023-12-20T14:55:44;11.23;;;10.63;;